sensor_id;sensor_type;location;lat;lon;timestamp;pressure;altitude;pressure_sealevel;temperature;humidity
21234;BME280;10774;42.178;26.578;2023-04-09T00:02:10;100489.63;;;6.39;100.00
21234;BME280;10774;42.178;26.578;2023-04-09T00:04:35;100489.63;;;6.39;100.00
21234;BME280;10774;42.178;26.578;2023-04-09T00:07:01;100490.72;;;6.34;100.00
21234;BME280;10774;42.178;26.578;2023-04-09T00:09:26;100487.66;;;6.44;100.00
21234;BME280;10774;42.178;26.578;2023-04-09T00:11:51;100458.59;;;6.37;100.00
21234;BME280;10774;42.178;26.578;2023-04-09T00:14:17;100490.53;;;6.62;100.00
21234;BME280;10774;42.178;26.578;2023-04-09T00:16:42;100486.81;;;6.66;100.00
21234;BME280;10774;42.178;26.578;2023-04-09T00:19:08;100466.84;;;6.54;100.00
21234;BME280;10774;42.178;26.578;2023-04-09T00:21:33;100478.13;;;6.61;100.00
21234;BME280;10774;42.178;26.578;2023-04-09T00:23:58;100473.50;;;6.66;100.00
21234;BME280;10774;42.178;26.578;2023-04-09T00:26:24;100488.38;;;6.48;100.00
21234;BME280;10774;42.178;26.578;2023-04-09T00:28:50;100469.94;;;5.70;100.00
21234;BME280;10774;42.178;26.578;2023-04-09T00:31:15;100474.59;;;5.38;100.00
21234;BME280;10774;42.178;26.578;2023-04-09T00:33:41;100464.22;;;5.56;100.00
21234;BME280;10774;42.178;26.578;2023-04-09T00:36:06;100489.94;;;5.30;100.00
21234;BME280;10774;42.178;26.578;2023-04-09T00:38:32;100469.59;;;5.03;100.00
21234;BME280;10774;42.178;26.578;2023-04-09T00:40:57;100488.44;;;4.95;100.00
21234;BME280;10774;42.178;26.578;2023-04-09T00:43:23;100495.13;;;4.80;100.00
21234;BME280;10774;42.178;26.578;2023-04-09T00:45:48;100485.94;;;4.90;100.00
21234;BME280;10774;42.178;26.578;2023-04-09T00:48:14;100494.97;;;5.13;100.00
21234;BME280;10774;42.178;26.578;2023-04-09T00:50:41;100483.81;;;5.02;100.00
21234;BME280;10774;42.178;26.578;2023-04-09T00:53:06;100500.25;;;4.86;100.00
21234;BME280;10774;42.178;26.578;2023-04-09T00:55:33;100485.06;;;4.62;100.00
21234;BME280;10774;42.178;26.578;2023-04-09T00:57:59;100503.13;;;4.80;100.00
21234;BME280;10774;42.178;26.578;2023-04-09T01:00:25;100487.38;;;5.01;100.00
21234;BME280;10774;42.178;26.578;2023-04-09T01:02:51;100499.44;;;5.39;100.00
21234;BME280;10774;42.178;26.578;2023-04-09T01:05:18;100474.56;;;5.13;100.00
21234;BME280;10774;42.178;26.578;2023-04-09T01:15:24;100487.06;;;5.10;100.00
21234;BME280;10774;42.178;26.578;2023-04-09T01:18:09;100492.56;;;5.32;100.00
21234;BME280;10774;42.178;26.578;2023-04-09T01:20:41;100492.31;;;5.39;100.00
21234;BME280;10774;42.178;26.578;2023-04-09T01:23:24;100493.38;;;5.60;100.00
21234;BME280;10774;42.178;26.578;2023-04-09T01:26:03;100492.16;;;5.69;100.00
21234;BME280;10774;42.178;26.578;2023-04-09T01:28:32;100495.00;;;5.64;100.00
21234;BME280;10774;42.178;26.578;2023-04-09T01:31:01;100492.94;;;5.72;100.00
21234;BME280;10774;42.178;26.578;2023-04-09T01:33:29;100491.28;;;5.68;100.00
21234;BME280;10774;42.178;26.578;2023-04-09T01:35:56;100477.66;;;5.26;100.00
21234;BME280;10774;42.178;26.578;2023-04-09T01:38:22;100477.63;;;5.53;100.00
21234;BME280;10774;42.178;26.578;2023-04-09T01:40:50;100494.81;;;5.69;100.00
21234;BME280;10774;42.178;26.578;2023-04-09T01:43:17;100478.34;;;5.58;100.00
21234;BME280;10774;42.178;26.578;2023-04-09T01:45:44;100488.31;;;5.26;100.00
21234;BME280;10774;42.178;26.578;2023-04-09T01:48:12;100473.72;;;5.11;100.00
21234;BME280;10774;42.178;26.578;2023-04-09T01:50:38;100491.59;;;5.34;100.00
21234;BME280;10774;42.178;26.578;2023-04-09T01:53:04;100487.78;;;5.41;100.00
21234;BME280;10774;42.178;26.578;2023-04-09T01:55:30;100473.63;;;5.41;100.00
21234;BME280;10774;42.178;26.578;2023-04-09T01:57:56;100489.13;;;5.02;100.00
21234;BME280;10774;42.178;26.578;2023-04-09T02:00:23;100473.13;;;5.30;100.00
21234;BME280;10774;42.178;26.578;2023-04-09T02:05:24;100485.25;;;5.12;100.00
21234;BME280;10774;42.178;26.578;2023-04-09T02:07:55;100462.03;;;5.17;100.00
21234;BME280;10774;42.178;26.578;2023-04-09T02:10:26;100473.16;;;5.02;100.00
21234;BME280;10774;42.178;26.578;2023-04-09T02:12:54;100465.03;;;5.33;100.00
21234;BME280;10774;42.178;26.578;2023-04-09T02:15:21;100487.47;;;5.50;100.00
21234;BME280;10774;42.178;26.578;2023-04-09T02:17:47;100479.91;;;5.65;100.00
21234;BME280;10774;42.178;26.578;2023-04-09T02:20:19;100475.97;;;5.75;100.00
21234;BME280;10774;42.178;26.578;2023-04-09T02:22:45;100481.19;;;5.78;100.00
21234;BME280;10774;42.178;26.578;2023-04-09T02:25:11;100478.66;;;5.75;100.00
21234;BME280;10774;42.178;26.578;2023-04-09T02:27:36;100490.00;;;5.55;100.00
21234;BME280;10774;42.178;26.578;2023-04-09T02:30:02;100478.94;;;5.14;100.00
21234;BME280;10774;42.178;26.578;2023-04-09T02:32:28;100485.06;;;5.43;100.00
21234;BME280;10774;42.178;26.578;2023-04-09T02:34:53;100475.53;;;4.55;100.00
21234;BME280;10774;42.178;26.578;2023-04-09T02:37:19;100479.91;;;4.28;100.00
21234;BME280;10774;42.178;26.578;2023-04-09T02:39:44;100484.59;;;4.77;100.00
21234;BME280;10774;42.178;26.578;2023-04-09T02:42:10;100481.47;;;5.19;100.00
21234;BME280;10774;42.178;26.578;2023-04-09T02:44:35;100485.06;;;5.43;100.00
21234;BME280;10774;42.178;26.578;2023-04-09T02:47:00;100500.50;;;5.58;100.00
21234;BME280;10774;42.178;26.578;2023-04-09T02:49:26;100495.13;;;5.86;100.00
21234;BME280;10774;42.178;26.578;2023-04-09T02:51:51;100482.00;;;5.80;100.00
21234;BME280;10774;42.178;26.578;2023-04-09T02:54:17;100503.38;;;6.03;100.00
21234;BME280;10774;42.178;26.578;2023-04-09T02:56:42;100496.97;;;6.09;100.00
21234;BME280;10774;42.178;26.578;2023-04-09T02:59:08;100495.28;;;6.07;100.00
21234;BME280;10774;42.178;26.578;2023-04-09T03:01:33;100501.91;;;6.20;100.00
21234;BME280;10774;42.178;26.578;2023-04-09T03:03:59;100502.84;;;6.19;100.00
21234;BME280;10774;42.178;26.578;2023-04-09T03:06:25;100473.84;;;5.60;100.00
21234;BME280;10774;42.178;26.578;2023-04-09T03:08:50;100469.91;;;5.96;100.00
21234;BME280;10774;42.178;26.578;2023-04-09T03:11:16;100503.22;;;6.32;100.00
21234;BME280;10774;42.178;26.578;2023-04-09T03:13:41;100497.03;;;6.31;100.00
21234;BME280;10774;42.178;26.578;2023-04-09T03:16:07;100488.47;;;6.23;100.00
21234;BME280;10774;42.178;26.578;2023-04-09T03:18:34;100488.91;;;5.61;100.00
21234;BME280;10774;42.178;26.578;2023-04-09T03:21:07;100497.16;;;5.27;100.00
21234;BME280;10774;42.178;26.578;2023-04-09T03:23:32;100504.97;;;5.33;100.00
21234;BME280;10774;42.178;26.578;2023-04-09T03:26:03;100496.84;;;5.87;100.00
21234;BME280;10774;42.178;26.578;2023-04-09T03:28:29;100485.75;;;5.99;100.00
21234;BME280;10774;42.178;26.578;2023-04-09T03:30:54;100504.34;;;6.26;100.00
21234;BME280;10774;42.178;26.578;2023-04-09T03:33:20;100492.63;;;6.07;100.00
21234;BME280;10774;42.178;26.578;2023-04-09T03:35:45;100518.91;;;6.17;100.00
21234;BME280;10774;42.178;26.578;2023-04-09T03:38:10;100515.53;;;6.36;100.00
21234;BME280;10774;42.178;26.578;2023-04-09T03:40:36;100514.16;;;6.49;100.00
21234;BME280;10774;42.178;26.578;2023-04-09T03:43:01;100519.41;;;6.50;100.00
21234;BME280;10774;42.178;26.578;2023-04-09T03:45:28;100506.34;;;6.43;100.00
21234;BME280;10774;42.178;26.578;2023-04-09T03:47:54;100506.25;;;6.46;100.00
21234;BME280;10774;42.178;26.578;2023-04-09T03:50:19;100521.50;;;6.42;100.00
21234;BME280;10774;42.178;26.578;2023-04-09T03:52:45;100527.63;;;6.68;100.00
21234;BME280;10774;42.178;26.578;2023-04-09T03:55:10;100520.31;;;6.96;100.00
21234;BME280;10774;42.178;26.578;2023-04-09T03:57:35;100527.81;;;7.08;100.00
21234;BME280;10774;42.178;26.578;2023-04-09T04:00:01;100519.97;;;7.26;100.00
21234;BME280;10774;42.178;26.578;2023-04-09T04:02:26;100523.69;;;7.22;100.00
21234;BME280;10774;42.178;26.578;2023-04-09T04:04:54;100509.56;;;7.20;100.00
21234;BME280;10774;42.178;26.578;2023-04-09T04:07:19;100524.94;;;7.35;100.00
21234;BME280;10774;42.178;26.578;2023-04-09T04:09:45;100482.22;;;7.35;100.00
21234;BME280;10774;42.178;26.578;2023-04-09T04:12:10;100526.19;;;7.69;100.00
21234;BME280;10774;42.178;26.578;2023-04-09T04:14:36;100523.41;;;7.72;100.00
21234;BME280;10774;42.178;26.578;2023-04-09T04:17:01;100516.59;;;7.65;100.00
21234;BME280;10774;42.178;26.578;2023-04-09T04:19:26;100527.00;;;7.71;100.00
21234;BME280;10774;42.178;26.578;2023-04-09T04:21:52;100516.84;;;7.79;100.00
21234;BME280;10774;42.178;26.578;2023-04-09T04:24:17;100518.91;;;7.93;100.00
21234;BME280;10774;42.178;26.578;2023-04-09T04:26:43;100535.28;;;8.05;100.00
21234;BME280;10774;42.178;26.578;2023-04-09T04:29:08;100521.78;;;8.08;100.00
21234;BME280;10774;42.178;26.578;2023-04-09T04:31:33;100526.56;;;8.21;100.00
21234;BME280;10774;42.178;26.578;2023-04-09T04:33:59;100530.59;;;8.10;100.00
21234;BME280;10774;42.178;26.578;2023-04-09T04:36:24;100539.97;;;8.41;100.00
21234;BME280;10774;42.178;26.578;2023-04-09T04:38:50;100521.34;;;8.38;100.00
21234;BME280;10774;42.178;26.578;2023-04-09T04:41:15;100523.41;;;8.31;100.00
21234;BME280;10774;42.178;26.578;2023-04-09T04:43:41;100504.91;;;8.27;100.00
21234;BME280;10774;42.178;26.578;2023-04-09T04:46:06;100529.25;;;8.41;100.00
21234;BME280;10774;42.178;26.578;2023-04-09T04:48:32;100520.00;;;8.48;100.00
21234;BME280;10774;42.178;26.578;2023-04-09T04:50:59;100519.22;;;8.26;100.00
21234;BME280;10774;42.178;26.578;2023-04-09T04:53:25;100537.38;;;8.58;100.00
21234;BME280;10774;42.178;26.578;2023-04-09T04:55:51;100533.53;;;8.45;100.00
21234;BME280;10774;42.178;26.578;2023-04-09T04:58:17;100535.22;;;8.67;100.00
21234;BME280;10774;42.178;26.578;2023-04-09T05:00:43;100527.47;;;8.79;100.00
21234;BME280;10774;42.178;26.578;2023-04-09T05:03:08;100529.63;;;8.90;100.00
21234;BME280;10774;42.178;26.578;2023-04-09T05:05:34;100536.38;;;8.99;100.00
21234;BME280;10774;42.178;26.578;2023-04-09T05:07:59;100534.25;;;9.05;100.00
21234;BME280;10774;42.178;26.578;2023-04-09T05:10:25;100529.41;;;9.13;100.00
21234;BME280;10774;42.178;26.578;2023-04-09T05:12:50;100530.34;;;9.12;100.00
21234;BME280;10774;42.178;26.578;2023-04-09T05:15:15;100539.66;;;9.23;100.00
21234;BME280;10774;42.178;26.578;2023-04-09T05:17:42;100542.53;;;9.37;100.00
21234;BME280;10774;42.178;26.578;2023-04-09T05:20:08;100526.09;;;9.08;100.00
21234;BME280;10774;42.178;26.578;2023-04-09T05:22:34;100536.50;;;9.14;100.00
21234;BME280;10774;42.178;26.578;2023-04-09T05:25:00;100527.38;;;9.19;100.00
21234;BME280;10774;42.178;26.578;2023-04-09T05:27:25;100539.28;;;9.30;100.00
21234;BME280;10774;42.178;26.578;2023-04-09T05:29:51;100533.66;;;9.54;100.00
21234;BME280;10774;42.178;26.578;2023-04-09T05:32:17;100524.75;;;9.53;100.00
21234;BME280;10774;42.178;26.578;2023-04-09T05:34:42;100535.31;;;9.74;100.00
21234;BME280;10774;42.178;26.578;2023-04-09T05:37:07;100543.84;;;9.82;100.00
21234;BME280;10774;42.178;26.578;2023-04-09T05:39:33;100539.91;;;9.89;100.00
21234;BME280;10774;42.178;26.578;2023-04-09T05:41:58;100543.66;;;10.19;100.00
21234;BME280;10774;42.178;26.578;2023-04-09T05:44:24;100528.34;;;10.21;100.00
21234;BME280;10774;42.178;26.578;2023-04-09T05:46:49;100534.03;;;10.33;100.00
21234;BME280;10774;42.178;26.578;2023-04-09T05:49:15;100534.34;;;10.60;100.00
21234;BME280;10774;42.178;26.578;2023-04-09T05:51:40;100544.34;;;10.73;98.47
21234;BME280;10774;42.178;26.578;2023-04-09T05:54:07;100542.28;;;10.94;97.02
21234;BME280;10774;42.178;26.578;2023-04-09T05:56:33;100517.59;;;10.88;95.04
21234;BME280;10774;42.178;26.578;2023-04-09T05:58:59;100543.16;;;10.95;95.56
21234;BME280;10774;42.178;26.578;2023-04-09T06:01:24;100534.25;;;11.10;95.95
21234;BME280;10774;42.178;26.578;2023-04-09T06:03:50;100525.66;;;11.19;96.04
21234;BME280;10774;42.178;26.578;2023-04-09T06:06:15;100522.34;;;11.46;95.02
21234;BME280;10774;42.178;26.578;2023-04-09T06:08:40;100532.25;;;11.60;93.72
21234;BME280;10774;42.178;26.578;2023-04-09T06:11:09;100539.50;;;11.27;94.07
21234;BME280;10774;42.178;26.578;2023-04-09T06:13:35;100516.81;;;11.17;93.97
21234;BME280;10774;42.178;26.578;2023-04-09T06:16:03;100539.19;;;11.64;93.56
21234;BME280;10774;42.178;26.578;2023-04-09T06:18:29;100542.81;;;11.78;91.77
21234;BME280;10774;42.178;26.578;2023-04-09T06:21:04;100545.03;;;12.16;89.23
21234;BME280;10774;42.178;26.578;2023-04-09T06:23:31;100518.81;;;12.20;88.32
21234;BME280;10774;42.178;26.578;2023-04-09T06:25:56;100540.84;;;12.41;85.09
21234;BME280;10774;42.178;26.578;2023-04-09T06:28:22;100535.13;;;12.02;87.46
21234;BME280;10774;42.178;26.578;2023-04-09T06:30:47;100537.66;;;12.20;87.75
21234;BME280;10774;42.178;26.578;2023-04-09T06:33:13;100545.66;;;12.36;86.74
21234;BME280;10774;42.178;26.578;2023-04-09T06:35:38;100532.25;;;11.60;88.07
21234;BME280;10774;42.178;26.578;2023-04-09T06:38:04;100541.75;;;11.97;89.72
21234;BME280;10774;42.178;26.578;2023-04-09T06:40:29;100544.88;;;12.19;88.42
21234;BME280;10774;42.178;26.578;2023-04-09T06:42:55;100532.75;;;12.69;86.07
21234;BME280;10774;42.178;26.578;2023-04-09T06:45:20;100544.38;;;12.98;82.04
21234;BME280;10774;42.178;26.578;2023-04-09T06:47:46;100546.28;;;12.96;81.32
21234;BME280;10774;42.178;26.578;2023-04-09T06:50:11;100544.25;;;13.14;81.80
21234;BME280;10774;42.178;26.578;2023-04-09T06:52:37;100555.28;;;13.65;79.06
21234;BME280;10774;42.178;26.578;2023-04-09T06:55:02;100557.09;;;13.52;77.48
21234;BME280;10774;42.178;26.578;2023-04-09T06:57:28;100542.19;;;13.46;76.73
21234;BME280;10774;42.178;26.578;2023-04-09T06:59:53;100546.00;;;13.56;75.80
21234;BME280;10774;42.178;26.578;2023-04-09T07:02:19;100545.81;;;13.18;78.14
21234;BME280;10774;42.178;26.578;2023-04-09T07:04:44;100552.75;;;12.65;81.26
21234;BME280;10774;42.178;26.578;2023-04-09T07:07:10;100523.25;;;12.64;82.26
21234;BME280;10774;42.178;26.578;2023-04-09T07:09:36;100536.66;;;13.06;79.32
21234;BME280;10774;42.178;26.578;2023-04-09T07:12:02;100529.63;;;13.18;78.22
21234;BME280;10774;42.178;26.578;2023-04-09T07:14:27;100554.44;;;13.38;77.47
21234;BME280;10774;42.178;26.578;2023-04-09T07:16:53;100535.97;;;13.31;75.95
21234;BME280;10774;42.178;26.578;2023-04-09T07:19:18;100535.66;;;13.76;74.28
21234;BME280;10774;42.178;26.578;2023-04-09T07:21:43;100545.28;;;13.67;75.32
21234;BME280;10774;42.178;26.578;2023-04-09T07:24:09;100542.63;;;13.53;74.95
21234;BME280;10774;42.178;26.578;2023-04-09T07:26:34;100534.13;;;13.59;74.08
21234;BME280;10774;42.178;26.578;2023-04-09T07:29:00;100552.44;;;13.54;74.08
21234;BME280;10774;42.178;26.578;2023-04-09T07:31:26;100537.63;;;13.74;73.61
21234;BME280;10774;42.178;26.578;2023-04-09T07:33:51;100538.06;;;13.80;73.19
21234;BME280;10774;42.178;26.578;2023-04-09T07:36:16;100556.31;;;14.29;71.28
21234;BME280;10774;42.178;26.578;2023-04-09T07:38:42;100546.16;;;14.58;70.52
21234;BME280;10774;42.178;26.578;2023-04-09T07:41:11;100557.59;;;14.36;67.39
21234;BME280;10774;42.178;26.578;2023-04-09T07:43:37;100542.78;;;14.17;67.76
21234;BME280;10774;42.178;26.578;2023-04-09T07:46:02;100543.50;;;14.06;69.61
21234;BME280;10774;42.178;26.578;2023-04-09T07:48:28;100538.41;;;13.49;71.28
21234;BME280;10774;42.178;26.578;2023-04-09T07:50:53;100528.28;;;13.52;73.76
21234;BME280;10774;42.178;26.578;2023-04-09T07:53:19;100547.19;;;13.65;72.42
21234;BME280;10774;42.178;26.578;2023-04-09T07:55:45;100539.81;;;13.81;72.39
21234;BME280;10774;42.178;26.578;2023-04-09T07:58:10;100543.34;;;14.34;70.61
21234;BME280;10774;42.178;26.578;2023-04-09T08:00:36;100552.03;;;14.00;70.53
21234;BME280;10774;42.178;26.578;2023-04-09T08:03:01;100538.56;;;14.12;69.24
21234;BME280;10774;42.178;26.578;2023-04-09T08:05:28;100554.78;;;14.25;69.49
21234;BME280;10774;42.178;26.578;2023-04-09T08:07:54;100561.72;;;14.80;68.14
21234;BME280;10774;42.178;26.578;2023-04-09T08:10:20;100569.25;;;15.13;64.09
21234;BME280;10774;42.178;26.578;2023-04-09T08:12:47;100558.41;;;15.13;60.68
21234;BME280;10774;42.178;26.578;2023-04-09T08:15:12;100562.25;;;14.98;62.27
21234;BME280;10774;42.178;26.578;2023-04-09T08:17:38;100545.38;;;15.31;61.63
21234;BME280;10774;42.178;26.578;2023-04-09T08:20:04;100549.00;;;15.19;62.00
21234;BME280;10774;42.178;26.578;2023-04-09T08:22:30;100552.56;;;15.07;61.12
21234;BME280;10774;42.178;26.578;2023-04-09T08:24:56;100542.59;;;14.83;63.20
21234;BME280;10774;42.178;26.578;2023-04-09T08:27:23;100557.78;;;15.10;63.68
21234;BME280;10774;42.178;26.578;2023-04-09T08:29:48;100562.06;;;15.49;61.54
21234;BME280;10774;42.178;26.578;2023-04-09T08:32:14;100561.91;;;15.03;60.25
21234;BME280;10774;42.178;26.578;2023-04-09T08:34:40;100538.75;;;15.59;60.23
21234;BME280;10774;42.178;26.578;2023-04-09T08:37:05;100545.56;;;15.89;58.57
21234;BME280;10774;42.178;26.578;2023-04-09T08:39:31;100557.00;;;16.39;57.61
21234;BME280;10774;42.178;26.578;2023-04-09T08:41:58;100543.13;;;16.66;56.17
21234;BME280;10774;42.178;26.578;2023-04-09T08:44:27;100556.97;;;16.96;55.75
21234;BME280;10774;42.178;26.578;2023-04-09T08:46:53;100546.13;;;16.85;55.92
21234;BME280;10774;42.178;26.578;2023-04-09T08:49:19;100551.53;;;17.08;53.51
21234;BME280;10774;42.178;26.578;2023-04-09T08:51:46;100551.03;;;17.03;54.56
21234;BME280;10774;42.178;26.578;2023-04-09T08:54:14;100548.44;;;17.12;53.33
21234;BME280;10774;42.178;26.578;2023-04-09T08:56:40;100530.44;;;17.11;53.60
21234;BME280;10774;42.178;26.578;2023-04-09T08:59:05;100522.19;;;17.13;52.32
21234;BME280;10774;42.178;26.578;2023-04-09T09:01:31;100532.53;;;17.08;51.48
21234;BME280;10774;42.178;26.578;2023-04-09T09:04:05;100543.56;;;16.84;52.25
21234;BME280;10774;42.178;26.578;2023-04-09T09:06:32;100535.75;;;17.02;51.58
21234;BME280;10774;42.178;26.578;2023-04-09T09:09:10;100532.81;;;16.93;51.80
21234;BME280;10774;42.178;26.578;2023-04-09T09:11:41;100526.22;;;17.18;52.13
21234;BME280;10774;42.178;26.578;2023-04-09T09:14:08;100526.50;;;17.15;52.44
21234;BME280;10774;42.178;26.578;2023-04-09T09:16:34;100523.50;;;17.41;51.36
21234;BME280;10774;42.178;26.578;2023-04-09T09:19:04;100516.22;;;17.41;50.89
21234;BME280;10774;42.178;26.578;2023-04-09T09:21:30;100513.34;;;16.88;50.58
21234;BME280;10774;42.178;26.578;2023-04-09T09:23:56;100509.31;;;17.69;50.79
21234;BME280;10774;42.178;26.578;2023-04-09T09:26:26;100496.13;;;17.65;49.79
21234;BME280;10774;42.178;26.578;2023-04-09T09:28:53;100513.34;;;17.43;49.96
21234;BME280;10774;42.178;26.578;2023-04-09T09:31:21;100507.72;;;17.23;49.63
21234;BME280;10774;42.178;26.578;2023-04-09T09:33:47;100508.28;;;17.49;50.26
21234;BME280;10774;42.178;26.578;2023-04-09T09:36:14;100510.75;;;17.52;50.67
21234;BME280;10774;42.178;26.578;2023-04-09T09:38:56;100501.34;;;17.57;50.38
21234;BME280;10774;42.178;26.578;2023-04-09T09:41:23;100477.94;;;17.44;49.44
21234;BME280;10774;42.178;26.578;2023-04-09T09:43:49;100507.38;;;17.17;50.79
21234;BME280;10774;42.178;26.578;2023-04-09T09:46:15;100480.59;;;17.56;49.78
21234;BME280;10774;42.178;26.578;2023-04-09T09:48:41;100494.47;;;18.06;49.32
21234;BME280;10774;42.178;26.578;2023-04-09T09:51:09;100488.81;;;17.97;49.20
21234;BME280;10774;42.178;26.578;2023-04-09T09:53:37;100487.31;;;18.05;48.35
21234;BME280;10774;42.178;26.578;2023-04-09T09:56:11;100482.59;;;18.07;47.37
21234;BME280;10774;42.178;26.578;2023-04-09T09:58:45;100485.44;;;18.26;47.09
21234;BME280;10774;42.178;26.578;2023-04-09T10:01:12;100462.41;;;17.99;47.06
21234;BME280;10774;42.178;26.578;2023-04-09T10:03:39;100456.31;;;17.86;47.53
21234;BME280;10774;42.178;26.578;2023-04-09T10:06:05;100467.16;;;17.22;49.13
21234;BME280;10774;42.178;26.578;2023-04-09T10:08:32;100463.59;;;17.21;49.27
21234;BME280;10774;42.178;26.578;2023-04-09T10:11:00;100473.28;;;17.99;48.22
21234;BME280;10774;42.178;26.578;2023-04-09T10:13:33;100470.81;;;17.96;47.64
21234;BME280;10774;42.178;26.578;2023-04-09T10:15:59;100453.66;;;17.75;47.09
21234;BME280;10774;42.178;26.578;2023-04-09T10:18:26;100474.16;;;18.61;45.81
21234;BME280;10774;42.178;26.578;2023-04-09T10:21:29;100481.06;;;18.65;45.99
21234;BME280;10774;42.178;26.578;2023-04-09T10:23:57;100473.13;;;18.73;44.83
21234;BME280;10774;42.178;26.578;2023-04-09T10:26:25;100480.03;;;18.97;44.23
21234;BME280;10774;42.178;26.578;2023-04-09T10:29:08;100466.50;;;19.45;43.72
21234;BME280;10774;42.178;26.578;2023-04-09T10:34:15;100440.44;;;19.81;43.37
21234;BME280;10774;42.178;26.578;2023-04-09T10:36:54;100426.13;;;19.31;43.56
21234;BME280;10774;42.178;26.578;2023-04-09T10:39:25;100434.28;;;19.31;43.48
21234;BME280;10774;42.178;26.578;2023-04-09T10:41:51;100419.84;;;18.71;43.82
21234;BME280;10774;42.178;26.578;2023-04-09T10:44:25;100444.50;;;18.79;44.15
21234;BME280;10774;42.178;26.578;2023-04-09T10:46:57;100426.53;;;19.17;43.40
21234;BME280;10774;42.178;26.578;2023-04-09T10:49:24;100442.03;;;19.65;42.81
21234;BME280;10774;42.178;26.578;2023-04-09T10:52:09;100425.38;;;19.39;42.37
21234;BME280;10774;42.178;26.578;2023-04-09T10:54:36;100423.41;;;19.60;42.99
21234;BME280;10774;42.178;26.578;2023-04-09T10:59:34;100409.84;;;20.07;41.76
21234;BME280;10774;42.178;26.578;2023-04-09T11:02:00;100392.28;;;20.29;41.82
21234;BME280;10774;42.178;26.578;2023-04-09T11:04:40;100407.84;;;20.09;41.77
21234;BME280;10774;42.178;26.578;2023-04-09T11:07:14;100386.56;;;19.66;41.88
21234;BME280;10774;42.178;26.578;2023-04-09T11:09:41;100369.78;;;18.93;43.27
21234;BME280;10774;42.178;26.578;2023-04-09T11:12:06;100379.84;;;19.12;43.41
21234;BME280;10774;42.178;26.578;2023-04-09T11:14:32;100406.25;;;17.79;45.36
21234;BME280;10774;42.178;26.578;2023-04-09T11:16:58;100404.63;;;17.97;45.56
21234;BME280;10774;42.178;26.578;2023-04-09T11:19:23;100400.84;;;18.50;45.41
21234;BME280;10774;42.178;26.578;2023-04-09T11:21:49;100396.75;;;19.25;43.33
21234;BME280;10774;42.178;26.578;2023-04-09T11:24:14;100400.91;;;19.77;41.85
21234;BME280;10774;42.178;26.578;2023-04-09T11:26:40;100394.88;;;19.16;43.08
21234;BME280;10774;42.178;26.578;2023-04-09T11:29:06;100380.69;;;19.22;43.74
21234;BME280;10774;42.178;26.578;2023-04-09T11:31:35;100360.63;;;19.23;43.11
21234;BME280;10774;42.178;26.578;2023-04-09T11:34:01;100367.25;;;19.30;42.77
21234;BME280;10774;42.178;26.578;2023-04-09T11:36:27;100379.53;;;19.34;42.06
21234;BME280;10774;42.178;26.578;2023-04-09T11:38:53;100368.69;;;19.15;42.92
21234;BME280;10774;42.178;26.578;2023-04-09T11:41:36;100361.81;;;19.30;42.60
21234;BME280;10774;42.178;26.578;2023-04-09T11:44:06;100345.84;;;19.45;42.61
21234;BME280;10774;42.178;26.578;2023-04-09T11:46:33;100368.47;;;19.84;42.67
21234;BME280;10774;42.178;26.578;2023-04-09T11:48:59;100358.13;;;19.88;42.22
21234;BME280;10774;42.178;26.578;2023-04-09T11:51:26;100359.63;;;19.72;41.75
21234;BME280;10774;42.178;26.578;2023-04-09T11:53:53;100353.75;;;19.48;42.74
21234;BME280;10774;42.178;26.578;2023-04-09T11:56:18;100360.84;;;19.88;42.33
21234;BME280;10774;42.178;26.578;2023-04-09T11:58:45;100342.97;;;20.13;41.54
21234;BME280;10774;42.178;26.578;2023-04-09T12:01:12;100345.63;;;20.32;40.82
21234;BME280;10774;42.178;26.578;2023-04-09T12:03:37;100317.56;;;20.49;40.41
21234;BME280;10774;42.178;26.578;2023-04-09T12:06:04;100350.38;;;21.03;39.98
21234;BME280;10774;42.178;26.578;2023-04-09T12:08:30;100339.38;;;20.95;38.79
21234;BME280;10774;42.178;26.578;2023-04-09T12:11:10;100343.50;;;20.81;39.71
21234;BME280;10774;42.178;26.578;2023-04-09T12:13:35;100333.28;;;18.26;43.22
21234;BME280;10774;42.178;26.578;2023-04-09T12:16:01;100335.84;;;18.27;43.56
21234;BME280;10774;42.178;26.578;2023-04-09T12:18:29;100346.47;;;18.40;43.25
21234;BME280;10774;42.178;26.578;2023-04-09T12:20:54;100340.31;;;18.88;43.66
21234;BME280;10774;42.178;26.578;2023-04-09T12:23:20;100335.13;;;19.63;41.74
21234;BME280;10774;42.178;26.578;2023-04-09T12:25:45;100319.06;;;20.06;40.05
21234;BME280;10774;42.178;26.578;2023-04-09T12:28:13;100331.19;;;20.22;39.58
21234;BME280;10774;42.178;26.578;2023-04-09T12:30:39;100308.31;;;19.48;40.20
21234;BME280;10774;42.178;26.578;2023-04-09T12:33:05;100318.16;;;19.88;39.13
21234;BME280;10774;42.178;26.578;2023-04-09T12:35:31;100316.53;;;20.23;39.42
21234;BME280;10774;42.178;26.578;2023-04-09T12:37:57;100326.84;;;20.84;39.77
21234;BME280;10774;42.178;26.578;2023-04-09T12:40:23;100328.41;;;21.04;39.59
21234;BME280;10774;42.178;26.578;2023-04-09T12:42:49;100331.16;;;20.31;38.96
21234;BME280;10774;42.178;26.578;2023-04-09T12:45:16;100313.94;;;19.37;40.75
21234;BME280;10774;42.178;26.578;2023-04-09T12:47:42;100333.41;;;19.62;40.60
21234;BME280;10774;42.178;26.578;2023-04-09T12:50:09;100316.22;;;19.51;40.92
21234;BME280;10774;42.178;26.578;2023-04-09T12:52:36;100324.56;;;19.87;41.42
21234;BME280;10774;42.178;26.578;2023-04-09T12:55:02;100319.53;;;19.92;40.39